Terminal Aerodrome Forecast
Issued by NWS

Home | Current Version | Previous Version | Graphics & Text | Print | Product List | Glossary On
Versions: 1 2 3 4 5 6 7 8 9 10 11 12 13 14 15 16 17 18 19 20 21 22 23 24 25
464
FTUS43 KBIS 212322
TAFMOT
TAF
KMOT 212322Z 2200/2224 24004KT P6SM VCSH OVC080
     FM220500 32005KT 6SM -RA OVC025
     FM220700 34007KT 2SM -RASN OVC008
     FM221100 35010KT 1SM -SN OVC005
     FM221500 36012KT P6SM VCSH OVC005
     FM221800 35011KT P6SM OVC008=

USA.gov is the U.S. government's official web portal to all federal, state and local government web resources and services.